Time;durP1;ratioP1;P1;durP2;ratioP2;P2;SDS_P1;SDS_P2;PMS_P1;PMS_P2;Temp;Humidity;BMP_temperature;BMP_pressure;BME280_temperature;BME280_humidity;BME280_pressure;Samples;Min_cycle;Max_cycle;Signal;HPM_P1;HPM_P2
2022/04/05 00:00:49;;;;;;;24.88;4.57;;;;;;;22.03;21.58;100637.44;2074995;28;20154;-78
2022/04/05 00:02:10;;;;;;;27.70;5.45;;;;;;;22.00;21.73;100623.22;2076705;28;20676;-77
2022/04/05 00:03:33;;;;;;;44.45;6.35;;;;;;;21.98;21.56;100620.59;2077750;28;20073;-79
2022/04/05 00:04:56;;;;;;;28.15;4.25;;;;;;;21.96;21.73;100618.88;2075738;28;20073;-78
2022/04/05 00:06:18;;;;;;;39.97;5.93;;;;;;;21.93;21.69;100619.81;2085664;28;20041;-78
2022/04/05 00:07:40;;;;;;;36.03;6.70;;;;;;;21.88;21.86;100622.66;2079101;28;20507;-78
2022/04/05 00:09:04;;;;;;;41.00;5.63;;;;;;;21.90;21.90;100637.88;2079054;28;20819;-78
2022/04/05 00:10:27;;;;;;;25.75;4.95;;;;;;;21.84;22.02;100642.53;2078863;28;20042;-78
2022/04/05 00:11:50;;;;;;;27.73;4.82;;;;;;;21.80;22.15;100643.53;2079718;28;20496;-78
2022/04/05 00:13:13;;;;;;;32.22;5.57;;;;;;;21.77;22.50;100648.16;2084794;28;20052;-78
2022/04/05 00:14:34;;;;;;;39.58;6.13;;;;;;;21.73;22.58;100650.03;2071669;28;20085;-78
2022/04/05 00:15:57;;;;;;;40.03;5.82;;;;;;;21.66;22.83;100650.31;2074737;28;20635;-78
2022/04/05 00:17:19;;;;;;;40.60;6.38;;;;;;;21.62;22.69;100651.31;2072812;28;20054;-78
2022/04/05 00:18:42;;;;;;;34.03;6.30;;;;;;;21.61;22.62;100636.13;2075769;28;20045;-78
2022/04/05 00:20:05;;;;;;;25.38;4.55;;;;;;;21.62;22.58;100637.88;2076498;28;20058;-77
2022/04/05 00:21:28;;;;;;;25.25;3.88;;;;;;;21.64;22.52;100646.78;2077395;28;20063;-79
2022/04/05 00:22:50;;;;;;;24.98;4.38;;;;;;;21.65;22.71;100629.72;2074041;28;20050;-79
2022/04/05 00:24:14;;;;;;;49.25;6.57;;;;;;;21.65;22.70;100644.06;2069086;28;20133;-78
2022/04/05 00:25:37;;;;;;;27.85;3.38;;;;;;;21.62;22.85;100636.06;2069478;28;20046;-78
2022/04/05 00:26:59;;;;;;;32.55;5.03;;;;;;;21.62;22.98;100636.06;2076540;28;20091;-78
2022/04/05 00:28:22;;;;;;;28.25;5.40;;;;;;;21.66;22.99;100634.19;2076314;28;20468;-78
2022/04/05 00:29:45;;;;;;;33.45;4.70;;;;;;;21.70;23.09;100631.34;2076754;28;20095;-79
2022/04/05 00:31:09;;;;;;;24.83;4.32;;;;;;;21.71;23.23;100625.03;2075885;28;20448;-78
2022/04/05 00:32:30;;;;;;;28.00;4.55;;;;;;;21.69;23.49;100620.63;2076405;28;20660;-77
2022/04/05 00:33:53;;;;;;;23.63;4.43;;;;;;;21.72;23.77;100615.19;2085467;28;20501;-78
2022/04/05 00:35:14;;;;;;;25.45;4.90;;;;;;;21.73;23.74;100615.09;2078688;28;20180;-78
2022/04/05 00:36:36;;;;;;;38.42;5.35;;;;;;;21.73;23.98;100614.22;2079757;28;20580;-78
2022/04/05 00:37:59;;;;;;;21.52;3.70;;;;;;;21.76;24.00;100603.38;2076711;28;20033;-77
2022/04/05 00:39:24;;;;;;;38.03;4.53;;;;;;;21.78;24.40;100582.72;2076364;28;20141;-78
2022/04/05 00:40:46;;;;;;;27.98;5.63;;;;;;;21.77;24.61;100573.78;2071536;28;20042;-78
2022/04/05 00:42:09;;;;;;;24.65;4.15;;;;;;;21.81;24.87;100577.22;2074916;28;20046;-78
2022/04/05 00:43:32;;;;;;;44.97;5.38;;;;;;;21.88;24.95;100584.16;2075678;28;20041;-77
2022/04/05 00:44:53;;;;;;;31.23;4.97;;;;;;;21.90;25.04;100570.66;2076977;28;20065;-78
2022/04/05 00:46:16;;;;;;;43.05;6.40;;;;;;;21.89;25.21;100577.84;2075166;28;20115;-79
2022/04/05 00:47:39;;;;;;;25.85;5.35;;;;;;;21.85;25.52;100586.97;2076349;28;20049;-79
2022/04/05 00:49:04;;;;;;;27.65;4.50;;;;;;;21.84;25.53;100586.09;2085637;28;20048;-78
2022/04/05 00:50:28;;;;;;;37.15;5.50;;;;;;;21.81;25.80;100601.41;2083091;28;20095;-78
2022/04/05 00:51:51;;;;;;;37.63;5.70;;;;;;;21.80;25.93;100575.47;2071610;28;20095;-78
2022/04/05 00:53:13;;;;;;;49.05;7.13;;;;;;;21.80;25.85;100581.72;2074073;28;20480;-78
2022/04/05 00:54:37;;;;;;;23.48;4.13;;;;;;;21.82;25.99;100582.56;2076447;28;20080;-78
2022/04/05 00:56:02;;;;;;;21.92;4.63;;;;;;;21.80;26.33;100586.22;2077063;28;20049;-78
2022/04/05 00:57:25;;;;;;;35.38;5.95;;;;;;;21.79;26.27;100579.97;2077503;28;20103;-77
2022/04/05 00:58:48;;;;;;;35.25;6.57;;;;;;;21.80;26.62;100581.72;2076003;28;20038;-78
2022/04/05 01:00:12;;;;;;;29.27;4.53;;;;;;;21.77;26.72;100600.66;2079385;28;20496;-77
2022/04/05 01:01:35;;;;;;;38.40;6.57;;;;;;;21.74;26.77;100605.22;2082326;28;20137;-79
2022/04/05 01:03:00;;;;;;;28.52;5.43;;;;;;;21.72;26.66;100608.00;2084922;28;20080;-78
2022/04/05 01:04:23;;;;;;;39.88;5.85;;;;;;;21.66;26.96;100593.88;2078759;28;20049;-78
2022/04/05 01:05:48;;;;;;;26.13;4.70;;;;;;;21.61;27.17;100579.69;2075148;28;20486;-77
2022/04/05 01:07:14;;;;;;;33.20;4.22;;;;;;;21.58;27.13;100594.13;2077416;28;20117;-77
2022/04/05 01:08:36;;;;;;;23.42;5.72;;;;;;;21.57;27.51;100592.38;2061934;28;20494;-78
2022/04/05 01:10:02;;;;;;;29.10;4.75;;;;;;;21.57;27.67;100595.03;2072761;28;21241;-78
2022/04/05 01:11:25;;;;;;;40.13;6.72;;;;;;;21.53;28.00;100596.06;2077843;28;20163;-77
2022/04/05 01:12:48;;;;;;;26.65;4.32;;;;;;;21.53;27.99;100593.38;2078586;28;20049;-77
2022/04/05 01:14:09;;;;;;;29.58;5.28;;;;;;;21.51;28.18;100597.94;2077771;28;20038;-78
2022/04/05 01:15:32;;;;;;;29.20;6.30;;;;;;;21.48;28.45;100600.69;2080174;28;20115;-78
2022/04/05 01:16:54;;;;;;;36.95;5.47;;;;;;;21.46;28.68;100614.16;2086743;28;20130;-77
2022/04/05 01:18:17;;;;;;;33.42;5.18;;;;;;;21.45;28.67;100620.50;2078176;28;20120;-78
2022/04/05 01:19:38;;;;;;;24.67;5.22;;;;;;;21.40;28.70;100633.16;2077958;28;20103;-78
2022/04/05 01:21:02;;;;;;;43.90;5.85;;;;;;;21.38;28.99;100628.78;2084377;28;20056;-78
2022/04/05 01:22:24;;;;;;;19.08;4.65;;;;;;;21.36;28.94;100626.16;2081218;28;20552;-78
2022/04/05 01:24:07;;;;;;;36.85;7.07;;;;;;;21.36;28.95;100622.56;2079699;28;20120;-78
2022/04/05 01:25:29;;;;;;;39.35;5.15;;;;;;;21.33;29.30;100620.00;2085353;28;20061;-78
2022/04/05 01:26:53;;;;;;;37.90;5.43;;;;;;;21.30;29.30;100642.44;2078922;28;20083;-77
2022/04/05 01:28:16;;;;;;;37.75;4.20;;;;;;;21.26;29.43;100650.66;2070426;28;20587;-78
2022/04/05 01:29:38;;;;;;;30.27;4.20;;;;;;;21.20;29.71;100645.47;2078482;28;20060;-78
2022/04/05 01:31:01;;;;;;;45.78;6.70;;;;;;;21.16;29.98;100643.78;2081123;28;20449;-78
2022/04/05 01:32:24;;;;;;;32.92;4.18;;;;;;;21.13;30.16;100647.44;2074705;28;20383;-78
2022/04/05 01:33:45;;;;;;;45.08;4.65;;;;;;;21.11;30.37;100643.91;2078857;28;20484;-77
2022/04/05 01:35:09;;;;;;;30.05;4.50;;;;;;;21.07;30.51;100631.47;2079973;28;20068;-78
2022/04/05 01:36:31;;;;;;;25.63;5.55;;;;;;;21.01;30.70;100637.91;2078715;28;20049;-78
2022/04/05 01:37:53;;;;;;;36.08;5.50;;;;;;;20.99;31.21;100628.16;2078369;28;20091;-78
2022/04/05 01:39:18;;;;;;;36.45;5.72;;;;;;;20.99;31.34;100622.78;2077537;28;20132;-78
2022/04/05 01:40:41;;;;;;;40.40;4.18;;;;;;;20.97;31.37;100624.63;2072876;28;20042;-78
2022/04/05 01:42:04;;;;;;;31.20;3.92;;;;;;;20.92;31.78;100611.34;2075017;28;20061;-77
2022/04/05 01:43:27;;;;;;;35.13;4.97;;;;;;;20.89;31.85;100610.53;2080993;28;20501;-78
2022/04/05 01:44:50;;;;;;;32.58;4.65;;;;;;;20.87;32.25;100604.38;2078305;28;20045;-77
2022/04/05 01:46:11;;;;;;;35.50;6.40;;;;;;;20.85;32.32;100604.41;2077113;28;20046;-78
2022/04/05 01:47:33;;;;;;;40.75;7.30;;;;;;;20.84;32.26;100597.28;2076914;28;20275;-78
2022/04/05 01:48:56;;;;;;;43.47;6.22;;;;;;;20.81;32.16;100604.50;2081139;28;20057;-78
2022/04/05 01:50:19;;;;;;;27.35;4.78;;;;;;;20.78;32.23;100599.25;2084145;28;20052;-78
2022/04/05 01:51:43;;;;;;;24.33;5.57;;;;;;;20.74;32.78;100593.09;2080722;28;20140;-78
2022/04/05 01:53:05;;;;;;;39.28;4.75;;;;;;;20.70;33.11;100599.47;2087391;28;20110;-78
2022/04/05 01:54:29;;;;;;;18.45;3.83;;;;;;;20.73;32.99;100585.09;2080816;28;20092;-77
2022/04/05 01:55:52;;;;;;;16.35;4.28;;;;;;;20.71;33.29;100592.28;2084659;28;20053;-78
2022/04/05 01:57:15;;;;;;;43.08;5.57;;;;;;;20.69;33.40;100603.94;2089357;28;20546;-77
2022/04/05 01:58:38;;;;;;;33.55;4.35;;;;;;;20.67;33.65;100599.56;2079219;28;20065;-78
2022/04/05 02:00:01;;;;;;;46.40;7.28;;;;;;;20.63;33.62;100600.56;2077624;28;20055;-79
2022/04/05 02:01:33;;;;;;;49.97;6.80;;;;;;;20.59;33.88;100591.72;2078737;28;20041;-79
2022/04/05 02:02:56;;;;;;;29.13;5.40;;;;;;;20.53;34.58;100578.50;2078023;28;20049;-78
2022/04/05 02:04:20;;;;;;;33.28;6.40;;;;;;;20.52;34.63;100578.53;2070073;28;20689;-78
2022/04/05 02:05:44;;;;;;;34.83;6.07;;;;;;;20.48;34.63;100574.19;2074914;28;20053;-78
2022/04/05 02:07:11;;;;;;;26.33;4.50;;;;;;;20.47;34.91;100573.31;2070135;28;20071;-78
2022/04/05 02:08:32;;;;;;;34.42;5.40;;;;;;;20.45;35.06;100572.47;2078301;28;20056;-78
2022/04/05 02:09:56;;;;;;;25.92;4.05;;;;;;;20.42;34.90;100580.56;2078169;28;20133;-78
2022/04/05 02:11:19;;;;;;;22.73;3.50;;;;;;;20.38;35.20;100578.03;2080575;28;20047;-77
2022/04/05 02:12:45;;;;;;;27.95;5.68;;;;;;;20.34;35.39;100571.88;2068977;28;20140;-78
2022/04/05 02:14:17;;;;;;;51.83;5.88;;;;;;;20.33;35.60;100577.28;2068849;28;20042;-78
2022/04/05 02:15:39;;;;;;;32.72;3.97;;;;;;;20.30;35.40;100565.69;2074984;28;20064;-78
2022/04/05 02:17:04;;;;;;;48.20;5.75;;;;;;;20.29;35.59;100563.03;2069383;28;20062;-77
2022/04/05 02:18:27;;;;;;;33.85;5.38;;;;;;;20.26;35.77;100564.00;2067046;28;20521;-78
2022/04/05 02:19:50;;;;;;;33.22;5.10;;;;;;;20.25;35.78;100566.72;2067013;28;20496;-79
2022/04/05 02:21:16;;;;;;;34.85;7.47;;;;;;;20.23;36.15;100582.84;2075005;28;20099;-78
2022/04/05 02:22:38;;;;;;;47.83;6.97;;;;;;;20.21;36.11;100583.84;2078482;28;20054;-78
2022/04/05 02:24:10;;;;;;;31.98;3.88;;;;;;;20.19;36.17;100594.59;2072238;28;20053;-78
2022/04/05 02:25:35;;;;;;;38.65;7.07;;;;;;;20.20;36.30;100590.09;2067660;28;20085;-77
2022/04/05 02:27:00;;;;;;;36.38;5.55;;;;;;;20.17;36.56;100588.38;2076416;28;20053;-78
2022/04/05 02:28:22;;;;;;;44.78;5.88;;;;;;;20.17;36.47;100595.53;2069210;28;20148;-78
2022/04/05 02:29:48;;;;;;;38.80;9.18;;;;;;;20.16;36.58;100599.13;2068084;28;20057;-78
2022/04/05 02:31:16;;;;;;;37.45;5.10;;;;;;;20.13;36.56;100600.13;2070588;28;20046;-78
2022/04/05 02:32:39;;;;;;;;;;;;;;;20.12;36.70;100597.47;2062453;28;20146;-78
2022/04/05 02:34:01;;;;;;;47.97;6.40;;;;;;;20.07;36.69;100594.91;2067463;28;19921;-78
2022/04/05 02:35:32;;;;;;;44.28;7.55;;;;;;;20.07;36.92;100604.75;2067631;28;20132;-78
2022/04/05 02:36:55;;;;;;;34.72;6.07;;;;;;;20.06;37.24;100614.59;2059645;28;20054;-78
2022/04/05 02:38:17;;;;;;;43.25;5.43;;;;;;;20.06;37.38;100619.06;2064730;28;20081;-78
2022/04/05 02:39:40;;;;;;;50.92;7.63;;;;;;;20.08;37.48;100620.81;2061941;28;20042;-77
2022/04/05 02:41:05;;;;;;;42.38;4.43;;;;;;;20.09;37.64;100622.53;2074833;28;20137;-77
2022/04/05 02:42:28;;;;;;;45.17;8.80;;;;;;;20.09;37.75;100621.66;2069737;28;20100;-78
2022/04/05 02:43:50;;;;;;;41.05;6.05;;;;;;;20.08;37.99;100615.44;2078026;28;20072;-77
2022/04/05 02:45:15;;;;;;;49.70;5.22;;;;;;;20.10;37.97;100621.63;2077212;28;20733;-78
2022/04/05 02:46:38;;;;;;;42.58;6.65;;;;;;;20.10;38.15;100628.78;2061640;28;20046;-78
2022/04/05 02:48:01;;;;;;;;;;;;;;;20.07;38.41;100626.19;2073699;28;20042;-77
2022/04/05 02:49:25;;;;;;;49.20;8.32;;;;;;;20.04;38.21;100618.22;2075434;28;20343;-78
2022/04/05 02:50:46;;;;;;;54.78;6.20;;;;;;;20.05;38.52;100625.34;2070950;28;20070;-78
2022/04/05 02:52:09;;;;;;;36.25;4.53;;;;;;;20.05;38.56;100620.88;2069052;28;20045;-78
2022/04/05 02:53:41;;;;;;;38.72;5.47;;;;;;;20.06;38.79;100624.44;2069533;28;20095;-78
2022/04/05 02:55:03;;;;;;;48.63;8.10;;;;;;;20.05;38.94;100625.34;2075371;28;20080;-78
2022/04/05 02:56:29;;;;;;;41.58;6.38;;;;;;;20.05;39.12;100626.22;2069069;28;20054;-78
2022/04/05 02:57:52;;;;;;;43.70;5.43;;;;;;;20.05;39.08;100636.06;2067194;28;20042;-78
2022/04/05 02:59:21;;;;;;;51.35;7.47;;;;;;;20.02;39.36;100623.59;2076645;28;20079;-77
2022/04/05 03:00:45;;;;;;;36.95;4.40;;;;;;;20.01;39.68;100618.31;2069605;28;20457;-77
2022/04/05 03:02:10;;;;;;;37.78;4.82;;;;;;;20.01;39.62;100621.00;2078027;28;20037;-79
2022/04/05 03:03:34;;;;;;;40.83;5.28;;;;;;;20.01;39.81;100615.63;2068230;28;20514;-78
2022/04/05 03:04:57;;;;;;;43.90;5.63;;;;;;;20.01;40.00;100619.19;2066156;28;20050;-78
2022/04/05 03:06:20;;;;;;;44.15;4.72;;;;;;;20.03;40.12;100627.16;2067902;28;20041;-78
2022/04/05 03:07:44;;;;;;;48.53;6.65;;;;;;;20.02;40.02;100626.28;2066081;28;20096;-77
2022/04/05 03:09:07;;;;;;;38.15;6.03;;;;;;;20.02;40.12;100625.44;2069559;28;20049;-78
2022/04/05 03:10:30;;;;;;;45.53;7.30;;;;;;;20.00;40.28;100630.81;2066315;28;20132;-78
2022/04/05 03:11:55;;;;;;;41.55;5.45;;;;;;;20.01;40.40;100621.88;2069581;28;20108;-77
2022/04/05 03:13:18;;;;;;;14.18;2.88;;;;;;;19.99;40.69;100629.06;2075114;28;20049;-78
2022/04/05 03:14:41;;;;;;;40.60;6.15;;;;;;;19.98;40.64;100632.66;2080450;28;20076;-78
2022/04/05 03:16:06;;;;;;;39.85;4.05;;;;;;;19.98;40.64;100616.56;2067943;28;20042;-78
2022/04/05 03:17:28;;;;;;;44.50;5.82;;;;;;;19.97;40.74;100622.84;2074612;28;20095;-78
2022/04/05 03:18:50;;;;;;;44.05;6.88;;;;;;;19.94;41.04;100622.06;2077089;28;20112;-78
2022/04/05 03:20:14;;;;;;;38.58;4.25;;;;;;;19.93;41.02;100604.22;2068994;28;20042;-78
2022/04/05 03:21:42;;;;;;;47.30;6.50;;;;;;;19.92;41.24;100600.66;2084585;28;20053;-78
2022/04/05 03:23:04;;;;;;;38.00;6.55;;;;;;;19.92;41.58;100600.66;2079678;28;20045;-78
2022/04/05 03:24:27;;;;;;;34.45;5.30;;;;;;;19.92;41.87;100589.06;2078769;28;20546;-78
2022/04/05 03:25:49;;;;;;;35.78;5.55;;;;;;;19.93;41.71;100599.75;2077707;28;20152;-78
2022/04/05 03:27:15;;;;;;;32.55;5.72;;;;;;;19.93;41.73;100586.34;2079489;28;20053;-78
2022/04/05 03:28:37;;;;;;;23.33;5.25;;;;;;;19.93;42.06;100589.03;2080135;28;20041;-78
2022/04/05 03:30:01;;;;;;;28.98;3.75;;;;;;;19.95;42.07;100589.00;2070658;28;20140;-78
2022/04/05 03:31:24;;;;;;;26.30;4.07;;;;;;;19.98;42.05;100588.91;2066601;28;20132;-78
2022/04/05 03:32:48;;;;;;;27.75;4.43;;;;;;;20.02;42.18;100587.91;2074941;28;20060;-78
2022/04/05 03:34:11;;;;;;;35.22;5.28;;;;;;;20.02;42.23;100594.13;2077609;28;20136;-78
2022/04/05 03:35:35;;;;;;;20.45;4.35;;;;;;;20.04;42.27;100591.41;2071821;28;20053;-78
2022/04/05 03:36:58;;;;;;;35.30;5.38;;;;;;;20.04;42.53;100575.34;2066503;28;20069;-77
2022/04/05 03:38:21;;;;;;;24.63;4.55;;;;;;;20.05;42.38;100577.09;2066018;28;20108;-78
2022/04/05 03:39:45;;;;;;;36.38;5.72;;;;;;;20.06;42.51;100571.72;2073159;28;21040;-78
2022/04/05 03:41:07;;;;;;;34.00;4.65;;;;;;;20.08;42.55;100563.63;2063911;28;20050;-78
2022/04/05 03:42:30;;;;;;;22.50;4.80;;;;;;;20.09;42.51;100558.22;2074552;28;20058;-78
2022/04/05 03:43:54;;;;;;;32.90;6.32;;;;;;;20.07;42.73;100549.34;2063788;28;20057;-78
2022/04/05 03:45:22;;;;;;;49.13;5.13;;;;;;;20.07;42.54;100559.19;2069870;28;20042;-78
2022/04/05 03:46:45;;;;;;;26.35;5.18;;;;;;;20.06;42.81;100549.38;2073273;28;20049;-78
2022/04/05 03:48:09;;;;;;;56.70;6.18;;;;;;;20.05;42.92;100556.53;2071318;28;20140;-78
2022/04/05 03:49:32;;;;;;;25.90;5.20;;;;;;;20.05;43.11;100552.97;2072550;28;20058;-78
2022/04/05 03:50:54;;;;;;;33.95;5.90;;;;;;;20.04;43.30;100551.22;2065989;28;20050;-78
2022/04/05 03:52:16;;;;;;;30.13;4.45;;;;;;;20.04;43.15;100546.75;2068525;28;20569;-78
2022/04/05 03:53:39;;;;;;;38.20;6.85;;;;;;;20.03;43.12;100539.63;2074499;28;20046;-78
2022/04/05 03:55:07;;;;;;;39.88;6.35;;;;;;;20.02;43.41;100526.28;2071094;28;20076;-77
2022/04/05 03:56:32;;;;;;;23.23;3.90;;;;;;;20.01;43.57;100537.91;2077983;28;20383;-79
2022/04/05 03:58:00;;;;;;;29.27;4.57;;;;;;;20.00;43.50;100536.16;2075085;28;20068;-78
2022/04/05 03:59:23;;;;;;;33.47;4.43;;;;;;;19.98;43.60;100536.19;2073489;28;20541;-78
2022/04/05 04:00:47;;;;;;;39.15;5.45;;;;;;;19.99;43.39;100531.72;2073383;28;20692;-78
2022/04/05 04:02:17;;;;;;;34.38;5.70;;;;;;;19.98;43.38;100530.81;2068592;28;20068;-78
2022/04/05 04:03:40;;;;;;;41.67;7.70;;;;;;;19.99;43.86;100512.94;2058462;28;20046;-77
2022/04/05 04:05:02;;;;;;;47.15;7.80;;;;;;;20.00;43.50;100514.72;2061103;28;20415;-78
2022/04/05 04:06:24;;;;;;;43.72;6.07;;;;;;;20.03;43.35;100519.97;2050381;28;20715;-78
2022/04/05 04:07:46;;;;;;;40.25;4.45;;;;;;;20.04;43.46;100508.34;2062428;28;20057;-79
2022/04/05 04:09:11;;;;;;;33.20;5.10;;;;;;;20.06;43.25;100499.34;2057806;28;20161;-78
2022/04/05 04:10:34;;;;;;;33.47;5.03;;;;;;;20.09;43.19;100493.00;2062378;28;20453;-78
2022/04/05 04:11:58;;;;;;;47.15;5.65;;;;;;;20.13;43.01;100475.94;2067044;28;20054;-78
2022/04/05 04:13:22;;;;;;;19.90;3.80;;;;;;;20.17;43.06;100482.94;2064736;28;20045;-78
2022/04/05 04:14:47;;;;;;;37.75;5.95;;;;;;;20.21;42.66;100487.31;2068729;28;20141;-79
2022/04/05 04:16:15;;;;;;;28.42;4.60;;;;;;;20.23;42.69;100480.97;2068211;28;20136;-78
2022/04/05 04:17:40;;;;;;;30.30;6.35;;;;;;;20.25;42.60;100478.25;2068844;28;20054;-79
2022/04/05 04:19:03;;;;;;;25.50;4.22;;;;;;;20.28;42.69;100483.56;2073811;28;20512;-78
2022/04/05 04:20:28;;;;;;;40.05;5.05;;;;;;;20.31;42.63;100491.50;2060989;28;20046;-78
2022/04/05 04:21:51;;;;;;;42.60;7.60;;;;;;;20.32;42.52;100485.22;2064246;28;20084;-78
2022/04/05 04:23:14;;;;;;;37.80;6.35;;;;;;;20.33;42.59;100492.38;2074094;28;20061;-78
2022/04/05 04:24:40;;;;;;;33.25;6.72;;;;;;;20.37;42.41;100490.47;2078822;28;20045;-78
2022/04/05 04:26:05;;;;;;;47.22;5.88;;;;;;;20.39;42.47;100480.59;2063672;28;20113;-77
2022/04/05 04:27:28;;;;;;;35.00;5.60;;;;;;;20.39;42.22;100484.13;2067111;28;20038;-78
2022/04/05 04:28:59;;;;;;;30.70;4.93;;;;;;;20.44;42.26;100481.31;2077471;28;20053;-77
2022/04/05 04:30:21;;;;;;;29.38;5.13;;;;;;;20.48;42.02;100472.28;2073594;28;20049;-78
2022/04/05 04:31:44;;;;;;;31.38;5.20;;;;;;;20.51;42.12;100478.41;2080033;28;20091;-79
2022/04/05 04:33:09;;;;;;;35.95;4.60;;;;;;;20.53;41.93;100481.94;2071139;28;20437;-78
2022/04/05 04:34:32;;;;;;;34.05;4.47;;;;;;;20.56;42.07;100463.06;2067437;28;20061;-78
2022/04/05 04:35:55;;;;;;;34.13;5.65;;;;;;;20.59;41.95;100465.66;2064256;28;20140;-79
2022/04/05 04:37:17;;;;;;;36.60;5.22;;;;;;;20.62;41.98;100451.25;2074180;28;20096;-78
2022/04/05 04:38:40;;;;;;;26.38;3.70;;;;;;;20.65;42.03;100453.88;2077133;28;20112;-79
2022/04/05 04:40:01;;;;;;;25.55;4.45;;;;;;;20.70;41.79;100457.28;2069017;28;20740;-78
2022/04/05 04:41:24;;;;;;;40.70;6.78;;;;;;;20.75;41.76;100460.69;2081930;28;20059;-78
2022/04/05 04:42:47;;;;;;;33.17;4.78;;;;;;;20.81;41.51;100456.94;2088118;28;20041;-78
2022/04/05 04:44:11;;;;;;;28.25;5.32;;;;;;;20.87;41.37;100429.94;2080563;28;20180;-79
2022/04/05 04:45:34;;;;;;;31.58;5.05;;;;;;;20.92;41.28;100449.44;2080700;28;20061;-78
2022/04/05 04:46:56;;;;;;;33.53;5.50;;;;;;;20.96;41.19;100445.72;2071026;28;20494;-79
2022/04/05 04:48:19;;;;;;;31.10;4.38;;;;;;;21.03;41.25;100458.03;2075372;28;20049;-78
2022/04/05 04:49:42;;;;;;;32.95;4.70;;;;;;;21.05;41.48;100440.06;2073467;28;20089;-79
2022/04/05 04:51:06;;;;;;;30.83;5.10;;;;;;;21.05;41.51;100442.75;2063791;28;20108;-79
2022/04/05 04:52:37;;;;;;;43.95;7.78;;;;;;;21.08;41.41;100456.06;2070196;28;20050;-77
2022/04/05 04:54:05;;;;;;;38.78;6.45;;;;;;;21.09;41.46;100458.69;2058410;28;20070;-78
2022/04/05 04:55:32;;;;;;;30.27;6.03;;;;;;;21.14;41.30;100449.59;2067491;28;20140;-78
2022/04/05 04:56:57;;;;;;;31.02;6.82;;;;;;;21.18;41.43;100443.25;2070555;28;20578;-78
2022/04/05 04:58:27;;;;;;;45.58;8.20;;;;;;;21.18;41.33;100419.09;2077475;28;20041;-78
2022/04/05 05:00:01;;;;;;;35.17;8.23;;;;;;;21.17;41.44;100434.31;2074906;28;20476;-78
2022/04/05 05:01:27;;;;;;;32.17;7.10;;;;;;;21.17;41.50;100437.00;2062625;28;20053;-78
2022/04/05 05:02:58;;;;;;;30.15;5.50;;;;;;;21.21;41.56;100441.34;2073565;28;20042;-78
2022/04/05 05:04:25;;;;;;;60.45;7.65;;;;;;;21.21;41.50;100432.41;2078273;28;20053;-78
2022/04/05 05:05:51;;;;;;;41.83;8.90;;;;;;;21.26;41.59;100430.47;2078400;28;20455;-78
2022/04/05 05:07:18;;;;;;;32.20;5.93;;;;;;;21.22;41.83;100416.25;2078284;28;20521;-77
2022/04/05 05:08:46;;;;;;;39.08;8.73;;;;;;;21.21;41.78;100427.91;2081350;28;20133;-78
2022/04/05 05:10:13;;;;;;;32.85;8.43;;;;;;;21.23;41.73;100426.06;2071095;28;20132;-78
2022/04/05 05:11:44;;;;;;;32.05;6.50;;;;;;;21.23;41.57;100427.88;2078786;28;20110;-78
2022/04/05 05:13:22;;;;;;;;;;;;;;;;;;;;;
2022/04/05 05:14:48;;;;;;;26.02;5.90;;;;;;;21.28;41.70;100450.06;2064248;28;20446;-78
2022/04/05 05:16:14;;;;;;;38.38;7.78;;;;;;;21.28;42.12;100450.94;2067840;28;20077;-78
2022/04/05 05:17:42;;;;;;;43.95;7.28;;;;;;;21.27;42.02;100451.88;2082556;28;20044;-78
2022/04/05 05:19:16;;;;;;;35.55;6.32;;;;;;;21.30;42.17;100438.34;2087174;28;20346;-78
2022/04/05 05:20:40;;;;;;;51.03;9.55;;;;;;;21.34;42.19;100431.06;2072871;28;20505;-78
2022/04/05 05:22:02;;;;;;;28.95;6.43;;;;;;;21.35;42.17;100412.22;2070399;28;20641;-78
2022/04/05 05:23:31;;;;;;;26.10;6.60;;;;;;;21.36;42.22;100418.47;2075463;28;20059;-77
2022/04/05 05:24:58;;;;;;;39.25;7.53;;;;;;;21.40;42.12;100398.63;2072036;28;20394;-77
2022/04/05 05:26:31;;;;;;;;;;;;;;;;;;;;;
2022/04/05 05:27:58;;;;;;;32.55;7.18;;;;;;;21.51;42.15;100422.44;2069953;28;20418;-78
2022/04/05 05:29:25;;;;;;;45.75;6.65;;;;;;;21.57;42.14;100438.34;2068810;28;20046;-78
2022/04/05 05:30:53;;;;;;;40.20;9.40;;;;;;;21.61;42.23;100437.28;2067878;28;20129;-78
2022/04/05 05:32:20;;;;;;;33.15;7.30;;;;;;;21.65;42.36;100429.09;2068797;28;20510;-78
2022/04/05 05:33:46;;;;;;;37.90;9.52;;;;;;;21.64;42.54;100421.97;2075177;28;20053;-78
2022/04/05 05:35:14;;;;;;;39.13;8.77;;;;;;;21.66;42.65;100403.09;2078245;28;20095;-78
2022/04/05 05:36:37;;;;;;;65.35;11.57;;;;;;;21.63;42.39;100385.28;2075323;28;20049;-79
2022/04/05 05:38:01;;;;;;;44.67;11.88;;;;;;;21.62;42.77;100378.13;2076871;28;21813;-79
2022/04/05 05:39:24;;;;;;;51.50;12.10;;;;;;;21.61;42.85;100381.75;2077591;28;20033;-78
2022/04/05 05:40:47;;;;;;;39.25;9.32;;;;;;;21.61;42.85;100395.19;2061917;28;20060;-79
2022/04/05 05:42:09;;;;;;;64.93;8.68;;;;;;;21.63;42.92;100397.81;2078531;28;20086;-78
2022/04/05 05:43:31;;;;;;;43.90;7.90;;;;;;;21.64;43.07;100388.84;2080127;28;20057;-80
2022/04/05 05:44:54;;;;;;;41.72;7.60;;;;;;;21.65;43.17;100380.72;2070022;28;20525;-79
2022/04/05 05:46:16;;;;;;;39.35;7.88;;;;;;;21.71;42.94;100377.81;2075703;28;20536;-79
2022/04/05 05:47:39;;;;;;;36.80;7.85;;;;;;;21.79;43.11;100370.34;2069156;28;20045;-79
2022/04/05 05:49:02;;;;;;;29.98;8.02;;;;;;;21.87;42.87;100379.00;2075969;28;20083;-79
2022/04/05 05:50:25;;;;;;;43.15;8.70;;;;;;;22.04;42.48;100394.56;2084736;28;20138;-79
2022/04/05 05:51:47;;;;;;;32.20;7.57;;;;;;;22.16;42.03;100372.56;2072501;28;20054;-80
2022/04/05 05:53:10;;;;;;;36.97;7.65;;;;;;;22.22;42.03;100366.97;2074436;28;20041;-80
2022/04/05 05:54:32;;;;;;;34.67;8.10;;;;;;;22.24;42.06;100369.59;2069030;28;20054;-80
2022/04/05 05:55:55;;;;;;;46.00;9.25;;;;;;;;;;2066767;28;20204;-81
2022/04/05 05:57:18;;;;;;;35.47;7.50;;;;;;;22.15;42.50;100335.84;2072814;28;20049;-79
2022/04/05 05:58:41;;;;;;;45.58;8.57;;;;;;;22.09;42.48;100352.22;2070106;28;20046;-80
2022/04/05 06:00:07;;;;;;;49.17;7.70;;;;;;;22.05;42.37;100369.41;2070432;28;20081;-80
2022/04/05 06:01:33;;;;;;;33.72;6.30;;;;;;;22.02;42.55;100387.47;2075230;28;20045;-81
2022/04/05 06:03:01;;;;;;;30.90;6.38;;;;;;;22.06;42.68;100365.78;2076305;28;20576;-80
2022/04/05 06:04:24;;;;;;;36.35;8.45;;;;;;;22.14;42.51;100374.44;2070428;28;20058;-79
2022/04/05 06:05:47;;;;;;;46.20;7.25;;;;;;;22.23;42.69;100397.41;2076607;28;20053;-78
2022/04/05 06:07:10;;;;;;;41.20;6.28;;;;;;;22.31;42.53;100410.56;2071473;28;20434;-80
2022/04/05 06:08:32;;;;;;;51.53;8.15;;;;;;;22.34;42.35;100400.56;2075865;28;20128;-82
2022/04/05 06:09:55;;;;;;;34.40;5.53;;;;;;;22.31;42.47;100376.50;2076681;28;20068;-80
2022/04/05 06:11:18;;;;;;;34.22;6.72;;;;;;;22.24;42.57;100410.81;2078141;28;20049;-80
2022/04/05 06:12:40;;;;;;;26.42;5.72;;;;;;;22.20;42.84;100419.91;2079609;28;20079;-80
2022/04/05 06:14:02;;;;;;;40.05;8.10;;;;;;;;;;2078217;28;20831;-79
2022/04/05 06:15:26;;;;;;;34.40;7.32;;;;;;;22.24;43.10;100389.28;2075399;28;20073;-80
2022/04/05 06:16:49;;;;;;;37.88;6.88;;;;;;;22.24;43.03;100374.97;2078329;28;20058;-81
2022/04/05 06:18:13;;;;;;;41.60;7.05;;;;;;;22.21;43.03;100349.06;2071739;28;20643;-81
2022/04/05 06:19:35;;;;;;;49.22;8.57;;;;;;;22.20;43.34;100366.13;2067563;28;20050;-82
2022/04/05 06:20:57;;;;;;;31.55;7.35;;;;;;;22.18;43.25;100359.94;2062905;28;20105;-80
2022/04/05 06:22:18;;;;;;;40.70;9.38;;;;;;;22.22;43.36;100363.38;2083867;28;20047;-82
2022/04/05 06:23:41;;;;;;;35.88;6.57;;;;;;;22.29;43.38;100405.25;2083209;28;20052;-82
2022/04/05 06:25:03;;;;;;;33.03;7.70;;;;;;;22.41;43.41;100403.88;2080098;28;20045;-81
2022/04/05 06:26:25;;;;;;;47.92;8.43;;;;;;;22.60;43.18;100407.63;2072224;28;20104;-80
2022/04/05 06:27:49;;;;;;;26.90;6.68;;;;;;;22.75;43.13;100401.66;2078120;28;20089;-80
2022/04/05 06:29:11;;;;;;;60.30;11.52;;;;;;;22.82;43.16;100384.34;2078441;28;20125;-80